createdAt,value
2019-05-09T00:01:18.079Z,13.23
2019-05-09T00:03:23.964Z,18.63
2019-05-09T00:05:27.724Z,14.00
2019-05-09T00:07:33.595Z,9.13
2019-05-09T00:09:37.386Z,17.10
2019-05-09T00:11:43.837Z,14.97
2019-05-09T00:13:47.025Z,13.57
2019-05-09T00:15:51.241Z,15.10
2019-05-09T00:17:55.140Z,14.67
2019-05-09T00:20:03.392Z,15.80
2019-05-09T00:22:06.429Z,15.83
2019-05-09T00:24:16.193Z,15.37
2019-05-09T00:26:20.385Z,17.00
2019-05-09T00:28:26.027Z,14.53
2019-05-09T00:30:48.469Z,13.67
2019-05-09T00:32:53.434Z,14.50
2019-05-09T00:35:03.916Z,16.00
2019-05-09T00:37:07.445Z,13.60
2019-05-09T00:39:13.252Z,14.80
2019-05-09T00:41:17.102Z,15.33
2019-05-09T00:43:21.205Z,13.90
2019-05-09T00:45:27.319Z,14.73
2019-05-09T00:47:33.014Z,13.93
2019-05-09T00:49:37.218Z,14.23
2019-05-09T00:51:43.623Z,15.87
2019-05-09T00:53:47.074Z,18.83
2019-05-09T00:55:52.937Z,14.47
2019-05-09T00:57:56.725Z,13.57
2019-05-09T01:00:00.724Z,15.47
2019-05-09T01:02:05.355Z,15.63
2019-05-09T01:04:09.360Z,16.67
2019-05-09T01:06:13.545Z,15.17
2019-05-09T01:08:17.987Z,15.07
2019-05-09T01:10:23.694Z,16.33
2019-05-09T01:12:27.635Z,12.93
2019-05-09T01:14:33.758Z,14.00
2019-05-09T01:16:37.503Z,14.57
2019-05-09T01:18:43.572Z,13.50
2019-05-09T01:20:47.347Z,14.60
2019-05-09T01:22:54.082Z,12.37
2019-05-09T01:24:58.534Z,13.80
2019-05-09T01:27:03.653Z,11.60
2019-05-09T01:29:07.979Z,13.80
2019-05-09T01:31:13.271Z,6.40
2019-05-09T01:33:24.064Z,12.87
2019-05-09T01:35:27.476Z,12.63
2019-05-09T01:37:34.032Z,13.37
2019-05-09T01:39:37.217Z,15.33
2019-05-09T01:41:41.073Z,9.57
2019-05-09T01:43:44.936Z,12.57
2019-05-09T01:45:54.041Z,5.57
2019-05-09T01:47:57.812Z,8.53
2019-05-09T01:50:03.778Z,7.73
2019-05-09T01:52:07.256Z,12.17
2019-05-09T01:54:13.177Z,11.60
2019-05-09T01:56:16.684Z,13.13
2019-05-09T01:58:20.563Z,10.13
2019-05-09T02:00:24.428Z,8.73
2019-05-09T02:02:28.316Z,9.03
2019-05-09T02:04:33.465Z,12.87
2019-05-09T02:06:37.507Z,11.40
2019-05-09T02:08:43.654Z,14.50
2019-05-09T02:10:46.889Z,9.47
2019-05-09T02:12:50.788Z,11.23
2019-05-09T02:15:13.118Z,11.60
2019-05-09T02:17:23.233Z,9.90
2019-05-09T02:19:33.179Z,15.13
2019-05-09T02:21:37.206Z,12.80
2019-05-09T02:23:43.115Z,9.57
2019-05-09T02:25:46.585Z,18.27
2019-05-09T02:27:50.488Z,11.63
2019-05-09T02:29:54.499Z,11.77
2019-05-09T02:31:58.460Z,11.53
2019-05-09T02:34:04.880Z,19.73
2019-05-09T02:36:09.786Z,15.23
2019-05-09T02:38:14.269Z,9.33
2019-05-09T02:40:18.931Z,12.60
2019-05-09T02:42:23.339Z,14.57
2019-05-09T02:44:28.940Z,14.93
2019-05-09T02:46:34.649Z,19.33
2019-05-09T02:48:38.779Z,9.97
2019-05-09T02:50:42.752Z,17.57
2019-05-09T02:52:48.699Z,10.70
2019-05-09T02:54:52.551Z,18.47
2019-05-09T02:56:58.082Z,12.03
2019-05-09T02:59:18.947Z,15.47
2019-05-09T03:01:24.127Z,18.03
2019-05-09T03:03:30.592Z,15.97
2019-05-09T03:05:34.701Z,13.10
2019-05-09T03:07:50.902Z,17.63
2019-05-09T03:09:54.913Z,10.67
2019-05-09T03:11:59.349Z,11.57
2019-05-09T03:14:04.960Z,12.10
2019-05-09T03:16:10.404Z,18.60
2019-05-09T03:18:14.316Z,12.00
2019-05-09T03:20:39.221Z,13.20
2019-05-09T03:22:42.073Z,13.77
2019-05-09T03:24:48.634Z,18.30
2019-05-09T03:26:59.295Z,12.97
2019-05-09T03:29:15.294Z,11.07
2019-05-09T03:31:20.941Z,17.33
2019-05-09T03:33:24.958Z,17.13
2019-05-09T03:35:29.158Z,10.10
2019-05-09T03:37:33.060Z,12.37
2019-05-09T03:39:37.711Z,13.13
2019-05-09T03:41:41.879Z,13.00
2019-05-09T03:43:48.062Z,13.07
2019-05-09T03:45:58.295Z,16.00
2019-05-09T03:48:03.011Z,11.67
2019-05-09T03:50:08.284Z,17.63
2019-05-09T03:52:12.266Z,13.27
2019-05-09T03:54:18.166Z,13.43
2019-05-09T03:56:23.455Z,18.63
2019-05-09T03:58:28.161Z,14.57
2019-05-09T04:00:32.495Z,14.20
2019-05-09T04:02:38.352Z,18.20
2019-05-09T04:04:42.654Z,18.10
2019-05-09T04:06:47.970Z,14.20
2019-05-09T04:08:53.983Z,12.77
2019-05-09T04:10:58.686Z,12.03
2019-05-09T04:13:03.185Z,11.07
2019-05-09T04:15:08.540Z,12.03
2019-05-09T04:17:13.141Z,19.87
2019-05-09T04:19:17.574Z,14.13
2019-05-09T04:21:21.770Z,12.00
2019-05-09T04:23:27.565Z,15.37
2019-05-09T04:25:32.958Z,10.47
2019-05-09T04:27:37.487Z,11.77
2019-05-09T04:29:41.689Z,11.13
2019-05-09T04:31:45.796Z,10.60
2019-05-09T04:33:49.801Z,9.00
2019-05-09T04:35:53.910Z,15.17
2019-05-09T04:37:58.416Z,8.37
2019-05-09T04:40:03.441Z,11.80
2019-05-09T04:42:08.366Z,11.17
2019-05-09T04:44:20.934Z,9.83
2019-05-09T04:46:24.383Z,16.53
2019-05-09T04:48:33.103Z,9.33
2019-05-09T04:50:37.634Z,9.20
2019-05-09T04:52:41.821Z,10.97
2019-05-09T04:54:48.311Z,7.00
2019-05-09T04:56:53.777Z,7.87
2019-05-09T04:58:58.373Z,7.57
2019-05-09T05:01:12.907Z,9.67
2019-05-09T05:03:18.312Z,9.27
2019-05-09T05:05:24.278Z,8.67
2019-05-09T05:07:28.787Z,10.90
2019-05-09T05:09:33.134Z,13.17
2019-05-09T05:11:38.363Z,10.90
2019-05-09T05:13:42.808Z,7.13
2019-05-09T05:15:47.531Z,11.83
2019-05-09T05:17:52.251Z,7.73
2019-05-09T05:19:58.024Z,11.60
2019-05-09T05:22:03.931Z,11.17
2019-05-09T05:24:09.711Z,12.47
2019-05-09T05:26:15.187Z,8.53
2019-05-09T05:28:20.868Z,8.53
2019-05-09T05:30:25.073Z,8.27
2019-05-09T05:32:30.719Z,10.20
2019-05-09T05:34:39.686Z,7.70
2019-05-09T05:36:43.555Z,6.77
2019-05-09T05:38:47.981Z,9.93
2019-05-09T05:40:52.124Z,9.53
2019-05-09T05:42:58.340Z,10.17
2019-05-09T05:45:01.584Z,8.13
2019-05-09T05:47:19.342Z,9.20
2019-05-09T05:49:24.326Z,6.23
2019-05-09T05:51:28.211Z,9.43
2019-05-09T05:53:32.173Z,8.93
2019-05-09T05:55:37.941Z,8.73
2019-05-09T05:57:41.627Z,5.80
2019-05-09T05:59:48.039Z,8.27
2019-05-09T06:01:51.085Z,7.43
2019-05-09T06:03:54.984Z,5.40
2019-05-09T06:05:58.848Z,7.70
2019-05-09T06:08:02.720Z,7.40
2019-05-09T06:10:08.222Z,7.33
2019-05-09T06:12:12.276Z,7.23
2019-05-09T06:14:18.506Z,7.03
2019-05-09T06:16:22.914Z,7.77
2019-05-09T06:18:27.608Z,7.17
2019-05-09T06:20:32.045Z,7.73
2019-05-09T06:22:38.064Z,5.90
2019-05-09T06:24:41.697Z,5.43
2019-05-09T06:26:47.806Z,6.57
2019-05-09T06:28:51.553Z,7.30
2019-05-09T06:30:58.209Z,6.87
2019-05-09T06:33:05.150Z,9.57
2019-05-09T06:35:11.251Z,7.13
2019-05-09T06:37:15.255Z,7.17
2019-05-09T06:39:19.262Z,5.63
2019-05-09T06:41:24.088Z,8.27
2019-05-09T06:43:31.166Z,8.53
2019-05-09T06:45:39.267Z,4.10
2019-05-09T06:47:43.992Z,7.43
2019-05-09T06:49:53.059Z,5.97
2019-05-09T06:51:58.052Z,7.43
2019-05-09T06:54:04.181Z,8.60
2019-05-09T06:56:08.210Z,5.40
2019-05-09T06:58:30.135Z,7.53
2019-05-09T07:00:39.085Z,5.57
2019-05-09T07:02:50.029Z,5.13
2019-05-09T07:04:57.976Z,7.93
2019-05-09T07:07:07.991Z,7.57
2019-05-09T07:09:13.209Z,7.63
2019-05-09T07:11:19.173Z,7.90
2019-05-09T07:13:22.962Z,7.17
2019-05-09T07:15:28.289Z,4.67
2019-05-09T07:17:38.555Z,5.80
2019-05-09T07:19:43.773Z,6.47
2019-05-09T07:22:08.744Z,5.60
2019-05-09T07:24:11.769Z,5.40
2019-05-09T07:26:21.268Z,8.77
2019-05-09T07:28:25.306Z,7.17
2019-05-09T07:30:31.162Z,9.37
2019-05-09T07:32:48.511Z,5.80
2019-05-09T07:34:54.222Z,7.40
2019-05-09T07:36:58.434Z,7.93
2019-05-09T07:39:02.952Z,13.37
2019-05-09T07:41:08.877Z,8.03
2019-05-09T07:43:12.968Z,7.13
2019-05-09T07:45:18.100Z,10.93
2019-05-09T07:47:22.035Z,6.53
2019-05-09T07:49:28.239Z,6.07
2019-05-09T07:51:31.802Z,4.70
2019-05-09T07:53:37.798Z,6.37
2019-05-09T07:55:41.452Z,8.07
2019-05-09T07:57:53.673Z,5.87
2019-05-09T07:59:51.209Z,6.87
2019-05-09T08:01:57.851Z,6.07
2019-05-09T08:04:01.063Z,8.87
2019-05-09T08:06:04.959Z,5.90
2019-05-09T08:08:12.047Z,9.37
2019-05-09T08:10:17.578Z,7.10
2019-05-09T08:12:21.695Z,5.03
2019-05-09T08:14:27.952Z,6.37
2019-05-09T08:16:31.661Z,5.67
2019-05-09T08:18:37.519Z,4.17
2019-05-09T08:20:41.314Z,3.87
2019-05-09T08:22:52.378Z,4.23
2019-05-09T08:24:50.965Z,8.20
2019-05-09T08:26:55.065Z,6.47
2019-05-09T08:28:58.958Z,3.47
2019-05-09T08:31:03.186Z,6.40
2019-05-09T08:33:08.253Z,5.17
2019-05-09T08:35:13.241Z,3.87
2019-05-09T08:37:17.555Z,2.80
2019-05-09T08:39:21.764Z,2.67
2019-05-09T08:41:28.740Z,4.40
2019-05-09T08:43:31.313Z,4.40
2019-05-09T08:45:35.308Z,3.80
2019-05-09T08:47:39.428Z,7.60
2019-05-09T08:49:47.411Z,2.67
2019-05-09T08:52:10.197Z,4.23
2019-05-09T08:54:03.942Z,4.23
2019-05-09T08:56:09.004Z,2.70
2019-05-09T08:58:14.418Z,5.43
2019-05-09T09:00:19.035Z,4.20
2019-05-09T09:02:23.446Z,4.13
2019-05-09T09:04:29.446Z,4.70
2019-05-09T09:06:33.172Z,7.20
2019-05-09T09:08:37.931Z,6.10
2019-05-09T09:10:42.337Z,3.07
2019-05-09T09:12:47.688Z,4.07
2019-05-09T09:14:52.094Z,2.97
2019-05-09T09:16:57.599Z,5.87
2019-05-09T09:19:01.948Z,5.63
2019-05-09T09:21:07.851Z,4.07
2019-05-09T09:23:11.395Z,5.17
2019-05-09T09:25:18.149Z,4.03
2019-05-09T09:27:21.147Z,3.53
2019-05-09T09:29:25.049Z,4.80
2019-05-09T09:31:29.159Z,6.03
2019-05-09T09:33:33.268Z,5.70
2019-05-09T09:35:38.262Z,3.70
2019-05-09T09:37:48.440Z,4.47
2019-05-09T09:39:48.851Z,5.87
2019-05-09T09:41:53.184Z,3.80
2019-05-09T09:43:58.261Z,3.43
2019-05-09T09:46:10.397Z,11.93
2019-05-09T09:48:08.990Z,6.40
2019-05-09T09:50:14.724Z,5.60
2019-05-09T09:52:19.001Z,6.17
2019-05-09T09:54:23.060Z,3.67
2019-05-09T09:56:28.150Z,5.50
2019-05-09T09:58:32.609Z,4.43
2019-05-09T10:00:48.258Z,5.90
2019-05-09T10:02:52.089Z,4.23
2019-05-09T10:04:56.198Z,4.93
2019-05-09T10:07:00.305Z,8.07
2019-05-09T10:09:09.181Z,2.97
2019-05-09T10:11:11.494Z,4.37
2019-05-09T10:13:15.402Z,5.10
2019-05-09T10:15:29.644Z,4.07
2019-05-09T10:17:44.196Z,4.37
2019-05-09T10:19:49.877Z,5.10
2019-05-09T10:21:57.638Z,7.30
2019-05-09T10:24:01.335Z,8.73
2019-05-09T10:26:05.545Z,6.10
2019-05-09T10:28:09.452Z,19.17
2019-05-09T10:30:13.866Z,7.83
2019-05-09T10:32:18.428Z,4.70
2019-05-09T10:34:22.800Z,8.30
2019-05-09T10:36:27.869Z,7.23
2019-05-09T10:38:32.143Z,2.80
2019-05-09T10:40:39.429Z,3.17
2019-05-09T10:42:48.317Z,9.53
2019-05-09T10:44:58.253Z,5.87
2019-05-09T10:47:15.817Z,5.20
2019-05-09T10:49:19.925Z,3.93
2019-05-09T10:51:24.046Z,7.87
2019-05-09T10:53:28.438Z,8.53
2019-05-09T10:55:32.562Z,6.23
2019-05-09T10:57:41.700Z,4.17
2019-05-09T10:59:42.211Z,6.07
2019-05-09T11:01:49.380Z,4.90
2019-05-09T11:03:51.864Z,3.60
2019-05-09T11:05:57.824Z,2.97
2019-05-09T11:08:01.616Z,5.07
2019-05-09T11:10:23.703Z,8.03
2019-05-09T11:12:12.187Z,4.27
2019-05-09T11:14:31.530Z,5.07
2019-05-09T11:16:21.837Z,7.50
2019-05-09T11:18:28.389Z,15.27
2019-05-09T11:20:31.489Z,8.97
2019-05-09T11:22:35.395Z,8.90
2019-05-09T11:24:46.028Z,5.60
2019-05-09T11:26:44.929Z,8.23
2019-05-09T11:28:48.948Z,6.87
2019-05-09T11:30:53.165Z,7.97
2019-05-09T11:32:59.648Z,5.77
2019-05-09T11:35:03.117Z,5.77
2019-05-09T11:37:08.557Z,5.93
2019-05-09T11:39:12.835Z,6.80
2019-05-09T11:41:19.216Z,6.07
2019-05-09T11:43:23.237Z,7.87
2019-05-09T11:45:28.148Z,6.27
2019-05-09T11:47:41.662Z,6.70
2019-05-09T11:49:39.108Z,6.80
2019-05-09T11:51:43.368Z,6.53
2019-05-09T11:53:48.630Z,4.57
2019-05-09T11:55:53.467Z,10.20
2019-05-09T11:57:59.081Z,8.20
2019-05-09T12:00:03.625Z,7.70
2019-05-09T12:02:08.921Z,5.47
2019-05-09T12:04:13.233Z,6.70
2019-05-09T12:06:19.697Z,6.13
2019-05-09T12:08:22.991Z,6.00
2019-05-09T12:10:28.576Z,6.20
2019-05-09T12:12:32.536Z,3.23
2019-05-09T12:14:38.160Z,5.97
2019-05-09T12:16:42.606Z,4.73
2019-05-09T12:18:48.889Z,5.70
2019-05-09T12:20:52.348Z,9.03
2019-05-09T12:22:58.467Z,5.57
2019-05-09T12:25:01.971Z,7.37
2019-05-09T12:27:08.559Z,9.60
2019-05-09T12:29:11.752Z,6.03
2019-05-09T12:31:18.118Z,7.40
2019-05-09T12:33:21.404Z,9.73
2019-05-09T12:35:25.512Z,5.53
2019-05-09T12:37:29.649Z,10.77
2019-05-09T12:39:33.946Z,6.37
2019-05-09T12:41:38.579Z,5.93
2019-05-09T12:43:46.599Z,10.37
2019-05-09T12:45:50.665Z,5.80
2019-05-09T12:48:07.564Z,3.70
2019-05-09T12:50:02.967Z,5.33
2019-05-09T12:52:08.207Z,6.13
2019-05-09T12:54:12.423Z,5.40
2019-05-09T12:56:18.510Z,6.33
2019-05-09T12:58:29.595Z,7.70
2019-05-09T13:00:33.647Z,4.83
2019-05-09T13:02:38.815Z,9.53
2019-05-09T13:04:43.195Z,2.90
2019-05-09T13:06:48.914Z,4.53
2019-05-09T13:08:52.872Z,3.80
2019-05-09T13:10:58.371Z,9.93
2019-05-09T13:13:03.449Z,3.50
2019-05-09T13:15:10.570Z,5.90
2019-05-09T13:17:19.020Z,5.77
2019-05-09T13:19:24.769Z,4.20
2019-05-09T13:21:32.572Z,6.33
2019-05-09T13:23:34.526Z,5.10
2019-05-09T13:25:39.796Z,7.37
2019-05-09T13:27:44.070Z,6.47
2019-05-09T13:29:49.332Z,7.87
2019-05-09T13:31:57.662Z,8.63
2019-05-09T13:34:01.311Z,6.87
2019-05-09T13:36:05.305Z,6.20
2019-05-09T13:38:09.420Z,6.23
2019-05-09T13:40:13.751Z,4.87
2019-05-09T13:42:19.598Z,5.13
2019-05-09T13:44:24.619Z,8.93
2019-05-09T13:46:28.731Z,7.23
2019-05-09T13:48:57.438Z,6.37
2019-05-09T13:50:38.378Z,7.13
2019-05-09T13:52:42.378Z,8.07
2019-05-09T13:54:48.240Z,4.90
2019-05-09T13:56:57.647Z,4.63
2019-05-09T13:58:58.524Z,8.47
2019-05-09T14:01:02.845Z,6.17
2019-05-09T14:03:08.105Z,7.40
2019-05-09T14:05:12.389Z,16.90
2019-05-09T14:07:19.309Z,5.73
2019-05-09T14:09:23.753Z,6.73
2019-05-09T14:11:29.206Z,10.13
2019-05-09T14:13:33.340Z,4.03
2019-05-09T14:15:37.513Z,6.23
2019-05-09T14:17:49.291Z,7.43
2019-05-09T14:19:51.048Z,7.50
2019-05-09T14:21:54.250Z,7.80
2019-05-09T14:24:11.262Z,4.47
2019-05-09T14:26:04.816Z,6.43
2019-05-09T14:28:09.247Z,5.40
2019-05-09T14:30:14.671Z,4.83
2019-05-09T14:32:20.386Z,4.40
2019-05-09T14:34:24.428Z,6.33
2019-05-09T14:36:28.541Z,5.83
2019-05-09T14:38:32.428Z,6.50
2019-05-09T14:40:38.628Z,3.90
2019-05-09T14:42:43.003Z,5.83
2019-05-09T14:44:47.536Z,3.10
2019-05-09T14:46:51.533Z,5.00
2019-05-09T14:49:14.784Z,6.27
2019-05-09T14:51:18.756Z,5.83
2019-05-09T14:53:23.009Z,5.83
2019-05-09T14:55:28.584Z,3.80
2019-05-09T14:57:32.873Z,5.73
2019-05-09T14:59:38.368Z,8.27
2019-05-09T15:01:43.934Z,6.53
2019-05-09T15:03:48.636Z,8.17
2019-05-09T15:05:53.088Z,6.97
2019-05-09T15:07:59.268Z,7.03
2019-05-09T15:10:08.571Z,4.67
2019-05-09T15:12:12.583Z,5.20
2019-05-09T15:14:18.074Z,4.67
2019-05-09T15:16:22.542Z,5.50
2019-05-09T15:18:26.439Z,4.13
2019-05-09T15:20:31.166Z,5.33
2019-05-09T15:22:35.164Z,6.67
2019-05-09T15:24:39.282Z,5.07
2019-05-09T15:26:43.395Z,7.13
2019-05-09T15:28:48.345Z,4.40
2019-05-09T15:30:52.631Z,6.97
2019-05-09T15:32:58.540Z,4.67
2019-05-09T15:35:08.695Z,4.43
2019-05-09T15:37:11.506Z,7.33
2019-05-09T15:39:15.420Z,4.00
2019-05-09T15:41:19.272Z,4.87
2019-05-09T15:43:23.328Z,5.23
2019-05-09T15:45:28.972Z,4.47
2019-05-09T15:47:34.728Z,4.37
2019-05-09T15:49:38.826Z,5.40
2019-05-09T15:51:42.939Z,4.07
2019-05-09T15:53:48.660Z,4.47
2019-05-09T15:55:52.587Z,6.37
2019-05-09T15:57:57.716Z,4.13
2019-05-09T16:00:02.035Z,5.50
2019-05-09T16:02:08.930Z,8.53
2019-05-09T16:04:11.890Z,4.33
2019-05-09T16:06:18.359Z,4.80
2019-05-09T16:08:21.254Z,6.17
2019-05-09T16:10:28.317Z,3.30
2019-05-09T16:12:32.173Z,7.23
2019-05-09T16:14:38.085Z,8.10
2019-05-09T16:16:41.967Z,4.03
2019-05-09T16:18:48.332Z,3.10
2019-05-09T16:20:51.730Z,4.47
2019-05-09T16:22:57.286Z,4.57
2019-05-09T16:25:03.624Z,7.87
2019-05-09T16:27:08.482Z,5.70
2019-05-09T16:29:12.763Z,2.87
2019-05-09T16:31:16.976Z,5.40
2019-05-09T16:33:21.082Z,4.87
2019-05-09T16:35:25.396Z,4.80
2019-05-09T16:37:29.507Z,4.70
2019-05-09T16:39:33.511Z,4.03
2019-05-09T16:41:39.131Z,4.67
2019-05-09T16:43:43.369Z,2.83
2019-05-09T16:45:47.884Z,3.77
2019-05-09T16:47:52.096Z,2.70
2019-05-09T16:49:57.905Z,3.30
2019-05-09T16:52:01.646Z,3.33
2019-05-09T16:54:07.397Z,4.43
2019-05-09T16:56:11.503Z,5.73
2019-05-09T16:58:18.311Z,6.77
2019-05-09T17:00:39.388Z,3.03
2019-05-09T17:02:43.385Z,4.83
2019-05-09T17:04:47.502Z,5.20
2019-05-09T17:06:51.398Z,2.33
2019-05-09T17:08:58.090Z,4.10
2019-05-09T17:11:01.049Z,7.73
2019-05-09T17:13:07.640Z,6.80
2019-05-09T17:15:10.601Z,5.37
2019-05-09T17:17:14.605Z,6.90
2019-05-09T17:19:19.540Z,4.40
2019-05-09T17:21:28.548Z,7.27
2019-05-09T17:23:33.381Z,5.90
2019-05-09T17:25:38.441Z,5.43
2019-05-09T17:27:42.723Z,4.50
2019-05-09T17:29:47.868Z,4.37
2019-05-09T17:31:52.069Z,6.60
2019-05-09T17:33:57.972Z,4.17
2019-05-09T17:36:01.616Z,4.20
2019-05-09T17:38:05.624Z,6.43
2019-05-09T17:40:09.724Z,2.40
2019-05-09T17:42:13.739Z,3.33
2019-05-09T17:44:18.595Z,3.07
2019-05-09T17:46:24.523Z,2.83
2019-05-09T17:48:28.886Z,5.53
2019-05-09T17:50:32.929Z,5.87
2019-05-09T17:52:36.944Z,2.27
2019-05-09T17:54:41.053Z,3.37
2019-05-09T17:56:45.267Z,3.20
2019-05-09T17:58:49.382Z,6.07
2019-05-09T18:00:53.483Z,5.20
2019-05-09T18:02:58.015Z,2.07
2019-05-09T18:05:02.599Z,3.57
2019-05-09T18:07:08.714Z,5.87
2019-05-09T18:09:12.271Z,5.80
2019-05-09T18:11:17.438Z,4.53
2019-05-09T18:13:23.948Z,3.00
2019-05-09T18:15:28.216Z,4.10
2019-05-09T18:17:32.493Z,5.63
2019-05-09T18:19:38.095Z,2.27
2019-05-09T18:21:50.677Z,2.90
2019-05-09T18:23:50.324Z,1.50
2019-05-09T18:25:54.666Z,4.47
2019-05-09T18:27:58.771Z,2.73
2019-05-09T18:30:03.599Z,3.40
2019-05-09T18:32:11.796Z,1.33
2019-05-09T18:34:35.264Z,3.83
2019-05-09T18:36:39.582Z,1.73
2019-05-09T18:38:44.187Z,2.13
2019-05-09T18:40:48.205Z,2.80
2019-05-09T18:42:54.250Z,4.00
2019-05-09T18:44:59.731Z,2.33
2019-05-09T18:47:04.325Z,2.60
2019-05-09T18:49:08.530Z,2.90
2019-05-09T18:51:12.644Z,4.07
2019-05-09T18:53:16.648Z,2.20
2019-05-09T18:55:20.958Z,2.57
2019-05-09T18:57:24.967Z,2.53
2019-05-09T18:59:28.869Z,2.50
2019-05-09T19:01:32.977Z,3.17
2019-05-09T19:03:37.086Z,2.97
2019-05-09T19:05:40.978Z,5.10
2019-05-09T19:07:45.097Z,1.47
2019-05-09T19:09:49.224Z,3.07
2019-05-09T19:11:53.392Z,3.87
2019-05-09T19:13:58.552Z,4.27
2019-05-09T19:18:46.445Z,2.13
2019-05-09T19:20:57.880Z,3.20
2019-05-09T19:23:01.889Z,7.30
2019-05-09T19:25:06.563Z,3.75
2019-05-09T19:27:10.487Z,2.50
2019-05-09T19:29:14.393Z,4.30
2019-05-09T19:31:18.258Z,2.40
2019-05-09T19:33:22.120Z,7.60
2019-05-09T19:35:26.056Z,2.67
2019-05-09T19:37:29.911Z,3.27
2019-05-09T19:39:35.165Z,3.10
2019-05-09T19:41:39.625Z,3.53
2019-05-09T19:43:43.506Z,2.90
2019-05-09T19:45:47.594Z,2.73
2019-05-09T19:47:51.703Z,6.13
2019-05-09T19:49:56.326Z,4.47
2019-05-09T19:52:00.329Z,2.80
2019-05-09T19:54:04.750Z,3.07
2019-05-09T19:56:10.595Z,2.40
2019-05-09T19:58:14.804Z,3.77
2019-05-09T20:00:20.260Z,2.53
2019-05-09T20:02:24.456Z,5.53
2019-05-09T20:04:29.706Z,2.63
2019-05-09T20:06:33.905Z,3.73
2019-05-09T20:08:37.908Z,2.47
2019-05-09T20:11:00.369Z,3.40
2019-05-09T20:13:15.216Z,3.27
2019-05-09T20:15:24.990Z,3.20
2019-05-09T20:17:35.418Z,4.10
2019-05-09T20:19:54.172Z,5.17
2019-05-09T20:22:09.548Z,3.40
2019-05-09T20:24:13.955Z,4.90
2019-05-09T20:26:18.251Z,3.20
2019-05-09T20:28:22.268Z,6.80
2019-05-09T20:30:27.165Z,6.17
2019-05-09T20:32:31.217Z,5.73
2019-05-09T20:34:37.576Z,6.27
2019-05-09T20:36:41.876Z,12.27
2019-05-09T20:38:46.631Z,4.67
2019-05-09T20:40:51.017Z,6.47
2019-05-09T20:42:56.953Z,3.93
2019-05-09T20:45:01.285Z,6.67
2019-05-09T20:47:05.489Z,7.40
2019-05-09T20:49:09.802Z,3.73
2019-05-09T20:51:14.017Z,4.70
2019-05-09T20:53:20.457Z,2.47
2019-05-09T20:55:24.793Z,3.53
2019-05-09T20:57:29.006Z,4.53
2019-05-09T20:59:34.864Z,2.93
2019-05-09T21:01:39.132Z,4.07
2019-05-09T21:03:58.862Z,3.67
2019-05-09T21:05:51.220Z,3.13
2019-05-09T21:07:55.796Z,3.90
2019-05-09T21:10:01.030Z,3.10
2019-05-09T21:12:05.653Z,3.40
2019-05-09T21:14:10.689Z,3.53
2019-05-09T21:16:15.095Z,3.97
2019-05-09T21:18:19.635Z,3.07
2019-05-09T21:20:23.930Z,4.63
2019-05-09T21:22:28.258Z,3.70
2019-05-09T21:24:32.862Z,4.10
2019-05-09T21:26:37.277Z,5.40
2019-05-09T21:28:41.393Z,5.10
2019-05-09T21:30:45.897Z,9.20
2019-05-09T21:32:50.218Z,3.67
2019-05-09T21:34:54.133Z,4.60
2019-05-09T21:36:58.234Z,4.47
2019-05-09T21:39:02.340Z,6.67
2019-05-09T21:41:06.346Z,6.13
2019-05-09T21:43:10.340Z,4.43
2019-05-09T21:45:15.078Z,4.83
2019-05-09T21:47:19.410Z,2.90
2019-05-09T21:49:23.393Z,6.20
2019-05-09T21:51:27.401Z,5.70
2019-05-09T21:53:40.405Z,4.20
2019-05-09T21:55:37.359Z,5.67
2019-05-09T21:57:41.569Z,3.77
2019-05-09T21:59:45.473Z,5.47
2019-05-09T22:02:08.834Z,5.13
2019-05-09T22:04:12.840Z,7.40
2019-05-09T22:06:17.157Z,7.60
2019-05-09T22:08:21.262Z,7.53
2019-05-09T22:10:25.324Z,5.97
2019-05-09T22:12:30.310Z,5.77
2019-05-09T22:14:34.404Z,6.90
2019-05-09T22:16:38.515Z,9.33
2019-05-09T22:18:43.247Z,6.07
2019-05-09T22:20:47.349Z,5.17
2019-05-09T22:22:51.344Z,8.47
2019-05-09T22:24:55.359Z,6.40
2019-05-09T22:26:59.368Z,6.13
2019-05-09T22:29:06.796Z,8.40
2019-05-09T22:31:11.293Z,7.03
2019-05-09T22:33:15.285Z,5.93
2019-05-09T22:35:19.489Z,10.33
2019-05-09T22:37:23.596Z,7.57
2019-05-09T22:39:27.447Z,9.83
2019-05-09T22:41:31.610Z,9.60
2019-05-09T22:43:35.613Z,9.93
2019-05-09T22:45:39.826Z,7.43
2019-05-09T22:47:44.855Z,12.90
2019-05-09T22:49:52.369Z,9.03
2019-05-09T22:51:57.363Z,12.53
2019-05-09T22:54:12.188Z,10.27
2019-05-09T22:56:07.130Z,7.97
2019-05-09T22:58:11.237Z,10.53
2019-05-09T23:00:16.732Z,5.80
2019-05-09T23:02:20.676Z,9.17
2019-05-09T23:04:24.792Z,6.60
2019-05-09T23:06:28.900Z,4.70
2019-05-09T23:08:33.011Z,9.13
2019-05-09T23:10:37.016Z,7.80
2019-05-09T23:12:41.125Z,8.00
2019-05-09T23:14:45.437Z,5.63
2019-05-09T23:16:50.979Z,5.63
2019-05-09T23:18:55.398Z,4.97
2019-05-09T23:20:59.605Z,6.87
2019-05-09T23:23:05.647Z,8.13
2019-05-09T23:25:09.873Z,8.70
2019-05-09T23:27:15.516Z,7.37
2019-05-09T23:29:19.521Z,6.70
2019-05-09T23:31:43.702Z,6.53
2019-05-09T23:33:47.811Z,6.27
2019-05-09T23:35:51.918Z,8.33
2019-05-09T23:37:57.411Z,10.00
2019-05-09T23:40:01.859Z,7.97
2019-05-09T23:42:05.972Z,9.37
2019-05-09T23:44:10.605Z,9.23
2019-05-09T23:46:14.718Z,13.03
2019-05-09T23:48:18.827Z,12.23
2019-05-09T23:50:23.040Z,9.43
2019-05-09T23:52:26.891Z,8.80
2019-05-09T23:54:48.607Z,12.93
2019-05-09T23:57:10.690Z,10.33
2019-05-09T23:59:32.824Z,11.13
